Time;durP1;ratioP1;P1;durP2;ratioP2;P2;SDS_P1;SDS_P2;PMS_P1;PMS_P2;Temp;Humidity;BMP_temperature;BMP_pressure;BME280_temperature;BME280_humidity;BME280_pressure;Samples;Min_cycle;Max_cycle;Signal;HPM_P1;HPM_P2
2023/11/05 00:02:15;;;;;;;2.50;1.20;;;;;;;8.90;75.52;93971.92;106982;1281;137642;-90
2023/11/05 00:04:41;;;;;;;3.90;2.20;;;;;;;8.91;75.64;93969.52;107113;1278;24543;-90
2023/11/05 00:07:07;;;;;;;2.20;1.10;;;;;;;8.92;75.63;93969.01;106985;1281;137589;-90
2023/11/05 00:09:33;;;;;;;3.60;2.00;;;;;;;8.93;75.61;93973.33;107173;1281;22616;-91
2023/11/05 00:11:59;;;;;;;3.30;2.00;;;;;;;8.97;75.70;93978.30;107135;1275;22548;-90
2023/11/05 00:14:25;;;;;;;4.60;2.50;;;;;;;8.99;75.60;93984.34;106955;1281;137530;-90
2023/11/05 00:16:51;;;;;;;2.90;1.50;;;;;;;9.01;75.84;93973.02;107131;1282;22589;-90
2023/11/05 00:19:17;;;;;;;3.60;1.50;;;;;;;9.02;75.74;93966.15;106917;1281;138067;-90
2023/11/05 00:21:44;;;;;;;4.10;1.40;;;;;;;9.02;75.74;93967.26;106934;1282;25371;-90
2023/11/05 00:24:10;;;;;;;2.50;1.40;;;;;;;9.05;76.03;93973.76;107091;1275;22566;-89
2023/11/05 00:26:36;;;;;;;3.70;1.30;;;;;;;9.04;75.98;93957.39;107068;1275;24001;-89
2023/11/05 00:29:02;;;;;;;2.30;1.20;;;;;;;9.08;75.99;93964.86;107173;1275;22541;-90
2023/11/05 00:31:28;;;;;;;3.10;1.00;;;;;;;9.10;76.03;93950.91;106846;1278;138559;-89
2023/11/05 00:33:54;;;;;;;2.00;1.00;;;;;;;9.13;75.85;93945.02;106985;1277;23234;-90
2023/11/05 00:36:20;;;;;;;2.10;1.00;;;;;;;9.14;75.64;93935.30;106991;1276;138003;-89
2023/11/05 00:38:47;;;;;;;2.30;1.00;;;;;;;9.16;76.00;93931.80;107064;1274;24245;-90
2023/11/05 00:41:13;;;;;;;1.80;0.90;;;;;;;9.16;76.16;93926.36;107038;1277;24359;-90
2023/11/05 00:43:39;;;;;;;2.40;1.70;;;;;;;9.17;76.16;93905.45;107285;1280;137725;-89
2023/11/05 00:46:05;;;;;;;1.90;0.90;;;;;;;9.17;76.17;93901.83;106983;1277;25324;-90
2023/11/05 00:48:31;;;;;;;3.40;1.40;;;;;;;9.18;76.25;93896.55;106806;1277;138654;-90
2023/11/05 00:50:58;;;;;;;3.20;1.20;;;;;;;9.19;75.90;93891.06;107221;1277;22541;-89
2023/11/05 00:53:24;;;;;;;3.40;1.40;;;;;;;9.20;76.15;93886.17;107087;1279;22562;-90
2023/11/05 00:55:50;;;;;;;4.30;2.10;;;;;;;9.21;76.30;93876.08;107160;1277;139043;-90
2023/11/05 00:58:16;;;;;;;5.10;2.00;;;;;;;9.21;76.42;93880.89;106993;1281;23649;-89
2023/11/05 01:00:42;;;;;;;3.20;1.40;;;;;;;9.22;76.43;93883.75;106900;1280;138454;-90
2023/11/05 01:03:08;;;;;;;2.50;1.10;;;;;;;9.22;76.11;93905.70;107042;1281;22550;-90
2023/11/05 01:05:34;;;;;;;3.20;2.10;;;;;;;9.25;75.96;93898.69;107085;1275;22546;-90
2023/11/05 01:08:01;;;;;;;1.80;0.90;;;;;;;9.27;76.11;93908.98;106942;1281;137706;-90
2023/11/05 01:10:27;;;;;;;3.10;1.10;;;;;;;9.28;76.05;93906.30;107033;1275;22553;-89
2023/11/05 01:12:53;;;;;;;2.30;1.10;;;;;;;9.28;75.91;93906.38;106984;1280;139176;-90
2023/11/05 01:15:18;;;;;;;3.80;1.10;;;;;;;9.29;75.85;93917.23;107137;1274;23894;-89
2023/11/05 01:17:45;;;;;;;1.50;0.80;;;;;;;9.30;75.95;93899.67;107192;1275;22555;-89
2023/11/05 01:20:11;;;;;;;1.90;1.10;;;;;;;9.31;75.87;93888.48;107037;1275;139216;-90
2023/11/05 01:22:38;;;;;;;2.90;1.20;;;;;;;9.32;75.93;93893.73;107226;1275;22807;-90
2023/11/05 01:25:05;;;;;;;1.90;1.10;;;;;;;9.32;75.89;93897.32;107106;1275;139101;-90
2023/11/05 01:27:31;;;;;;;2.50;1.10;;;;;;;9.32;75.69;93884.71;107090;1274;22540;-90
2023/11/05 01:29:57;;;;;;;2.20;1.90;;;;;;;9.33;75.73;93887.99;106881;1278;22549;-89
2023/11/05 01:32:23;;;;;;;1.70;1.30;;;;;;;9.34;75.75;93871.32;106776;1281;138761;-90
2023/11/05 01:34:49;;;;;;;2.10;1.70;;;;;;;9.34;76.07;93869.77;107051;1274;23051;-89
2023/11/05 01:37:15;;;;;;;2.00;1.20;;;;;;;9.32;75.82;93860.98;106953;1275;151543;-89
2023/11/05 01:39:41;;;;;;;3.00;1.20;;;;;;;9.33;75.99;93855.50;107000;1275;22548;-90
2023/11/05 01:42:07;;;;;;;2.20;1.20;;;;;;;9.34;76.02;93869.60;107116;1278;22662;-89
2023/11/05 01:44:33;;;;;;;2.50;1.20;;;;;;;9.32;75.84;93872.19;106991;1281;138170;-89
2023/11/05 01:46:59;;;;;;;3.00;1.20;;;;;;;9.33;75.76;93875.09;107048;1275;22539;-89
2023/11/05 01:49:26;;;;;;;2.40;1.10;;;;;;;9.33;76.09;93869.82;107016;1278;138250;-90
2023/11/05 01:51:54;;;;;;;2.50;1.10;;;;;;;9.34;75.90;93869.24;107192;1270;22586;-90
2023/11/05 01:54:20;;;;;;;2.10;0.90;;;;;;;9.34;75.75;93867.28;107404;1280;138476;-90
2023/11/05 01:56:46;;;;;;;1.90;1.00;;;;;;;9.35;75.90;93864.76;107482;1275;25431;-90
2023/11/05 01:59:12;;;;;;;2.20;1.30;;;;;;;9.35;75.86;93859.52;107215;1275;22552;-90
2023/11/05 02:01:38;;;;;;;2.30;1.50;;;;;;;9.37;75.78;93856.23;106983;1282;139131;-92
2023/11/05 02:04:04;;;;;;;2.00;1.00;;;;;;;9.37;75.92;93854.26;107059;1275;25314;-90
2023/11/05 02:06:31;;;;;;;2.70;1.00;;;;;;;9.37;76.17;93862.96;107088;1275;138083;-90
2023/11/05 02:08:56;;;;;;;3.10;1.00;;;;;;;9.37;76.26;93867.16;107212;1276;24206;-91
2023/11/05 02:11:22;;;;;;;3.30;0.90;;;;;;;9.38;76.17;93859.19;107172;1281;22576;-89
2023/11/05 02:13:52;;;;;;;3.40;1.30;;;;;;;9.37;76.08;93855.45;107033;1281;138667;-91
2023/11/05 02:16:20;;;;;;;3.00;1.20;;;;;;;9.37;76.07;93851.46;107170;1275;22589;-91
2023/11/05 02:18:46;;;;;;;1.70;1.20;;;;;;;9.37;75.89;93847.26;107122;1281;138437;-91
2023/11/05 02:21:42;;;;;;;2.10;1.10;;;;;;;9.38;75.78;93847.42;107340;1259;23063;-89
2023/11/05 02:24:08;;;;;;;1.80;1.20;;;;;;;9.38;75.99;93845.05;107098;1281;22576;-90
2023/11/05 02:26:35;;;;;;;3.50;1.20;;;;;;;9.39;75.85;93853.50;106939;1277;138118;-91
2023/11/05 02:29:01;;;;;;;1.20;1.00;;;;;;;9.39;75.92;93857.23;107124;1281;25527;-90
2023/11/05 02:31:27;;;;;;;3.20;1.20;;;;;;;9.40;75.82;93875.39;106911;1283;137881;-91
2023/11/05 02:33:52;;;;;;;3.60;1.50;;;;;;;9.40;75.80;93879.65;107077;1275;24226;-91
2023/11/05 02:36:19;;;;;;;1.80;1.10;;;;;;;9.42;75.84;93879.05;106933;1281;138985;-91
2023/11/05 02:38:45;;;;;;;2.80;0.90;;;;;;;9.43;75.76;93877.92;106902;1280;22547;-91
2023/11/05 02:41:12;;;;;;;2.30;1.20;;;;;;;9.43;75.61;93870.20;107119;1281;25363;-90
2023/11/05 02:43:38;;;;;;;1.40;0.90;;;;;;;9.44;75.45;93871.11;106959;1274;138188;-89
2023/11/05 02:46:05;;;;;;;1.40;1.30;;;;;;;9.45;75.49;93876.48;106882;1273;22798;-91
2023/11/05 02:48:31;;;;;;;2.90;1.30;;;;;;;9.45;75.45;93883.06;106999;1275;139131;-91
2023/11/05 02:50:57;;;;;;;1.70;0.80;;;;;;;9.46;75.19;93876.81;107159;1274;22637;-88
2023/11/05 02:53:23;;;;;;;1.40;1.10;;;;;;;9.48;75.37;93878.90;107028;1281;22698;-89
2023/11/05 02:55:49;;;;;;;1.40;1.10;;;;;;;9.48;75.36;93867.23;106890;1278;138377;-89
2023/11/05 02:58:15;;;;;;;2.00;1.10;;;;;;;9.48;75.23;93863.45;107114;1273;22838;-90
2023/11/05 03:00:41;;;;;;;1.40;1.10;;;;;;;9.49;75.06;93855.49;106971;1275;138945;-89
2023/11/05 03:03:09;;;;;;;3.20;1.00;;;;;;;9.49;75.26;93841.18;107023;1281;22881;-89
2023/11/05 03:05:35;;;;;;;1.70;1.00;;;;;;;9.49;75.37;93842.37;107052;1275;25362;-89
2023/11/05 03:08:01;;;;;;;1.30;1.10;;;;;;;9.49;75.32;93846.36;106907;1275;138026;-89
2023/11/05 03:10:27;;;;;;;3.00;1.10;;;;;;;9.49;75.12;93841.74;107181;1274;22656;-90
2023/11/05 03:12:53;;;;;;;2.50;1.20;;;;;;;9.48;75.05;93843.04;107049;1275;138527;-89
2023/11/05 03:15:19;;;;;;;1.70;1.00;;;;;;;9.48;75.29;93846.98;107117;1281;22699;-90
2023/11/05 03:17:45;;;;;;;2.30;1.10;;;;;;;9.48;75.07;93842.67;107033;1281;22534;-90
2023/11/05 03:20:12;;;;;;;2.10;1.20;;;;;;;9.48;75.14;93836.97;106916;1281;138037;-90
2023/11/05 03:22:39;;;;;;;1.90;0.90;;;;;;;9.47;74.95;93828.25;107030;1281;22540;-89
2023/11/05 03:25:06;;;;;;;1.70;0.90;;;;;;;9.47;75.04;93824.11;106953;1281;138831;-89
2023/11/05 03:27:32;;;;;;;1.70;1.00;;;;;;;9.47;74.82;93826.23;106916;1280;22538;-90
2023/11/05 03:29:58;;;;;;;2.20;1.10;;;;;;;9.47;74.98;93826.64;107093;1278;22653;-90
2023/11/05 03:32:24;;;;;;;1.80;1.00;;;;;;;9.46;74.73;93825.44;106995;1275;138061;-90
2023/11/05 03:34:50;;;;;;;2.00;0.90;;;;;;;9.46;74.66;93835.33;106948;1266;22537;-91
2023/11/05 03:37:16;;;;;;;1.50;0.90;;;;;;;9.45;74.49;93843.20;106977;1275;138009;-90
2023/11/05 03:39:46;;;;;;;2.50;1.00;;;;;;;9.46;74.35;93851.50;107070;1273;22616;-90
2023/11/05 03:42:13;;;;;;;2.90;1.20;;;;;;;9.47;74.15;93849.60;107056;1267;138959;-90
2023/11/05 03:44:39;;;;;;;1.40;0.90;;;;;;;9.48;74.21;93843.35;107159;1281;22530;-89
2023/11/05 03:47:05;;;;;;;1.30;0.90;;;;;;;9.49;74.05;93843.20;107103;1275;22540;-89
2023/11/05 03:49:31;;;;;;;1.20;1.10;;;;;;;9.50;73.68;93858.93;107035;1274;137859;-90
2023/11/05 03:51:58;;;;;;;2.10;1.10;;;;;;;9.51;73.42;93861.34;106996;1278;22548;-89
2023/11/05 03:54:24;;;;;;;1.60;0.90;;;;;;;9.53;73.57;93866.13;106939;1275;139151;-90
2023/11/05 03:56:51;;;;;;;2.30;1.00;;;;;;;9.55;73.25;93863.08;107164;1275;25249;-88
2023/11/05 03:59:16;;;;;;;1.40;0.90;;;;;;;9.56;73.14;93861.34;106997;1275;22546;-90
2023/11/05 04:01:42;;;;;;;1.30;0.80;;;;;;;9.57;72.95;93866.80;106945;1275;138347;-89
2023/11/05 04:04:10;;;;;;;1.20;0.90;;;;;;;9.60;73.25;93862.80;106929;1271;22560;-88
2023/11/05 04:06:35;;;;;;;2.90;1.30;;;;;;;9.61;73.15;93857.40;106854;1275;138092;-89
2023/11/05 04:09:01;;;;;;;2.50;1.20;;;;;;;9.62;73.10;93852.02;107139;1275;22551;-89
2023/11/05 04:11:28;;;;;;;1.40;1.00;;;;;;;9.63;73.13;93844.92;106954;1278;22530;-90
2023/11/05 04:13:54;;;;;;;2.50;1.60;;;;;;;9.64;73.27;93826.06;106912;1280;137919;-88
2023/11/05 04:16:20;;;;;;;1.80;0.80;;;;;;;9.65;73.03;93820.11;107085;1275;22715;-90
2023/11/05 04:18:46;;;;;;;1.30;0.80;;;;;;;9.65;73.21;93834.36;106933;1275;139000;-89
2023/11/05 04:21:11;;;;;;;2.30;0.70;;;;;;;9.65;73.34;93842.98;107088;1278;25233;-89
2023/11/05 04:23:38;;;;;;;1.90;0.90;;;;;;;9.65;73.46;93847.64;107098;1278;23002;-89
2023/11/05 04:26:05;;;;;;;4.10;0.90;;;;;;;9.65;73.02;93846.65;106957;1276;137842;-89
2023/11/05 04:28:31;;;;;;;2.10;0.90;;;;;;;9.65;73.24;93853.88;107016;1278;22600;-88
2023/11/05 04:30:58;;;;;;;2.00;1.00;;;;;;;9.65;73.45;93856.70;106872;1280;137950;-90
2023/11/05 04:33:24;;;;;;;1.70;0.80;;;;;;;9.64;73.66;93856.65;107046;1273;22561;-89
2023/11/05 04:35:50;;;;;;;2.00;1.00;;;;;;;9.63;73.85;93851.45;107044;1281;22533;-88
2023/11/05 04:38:17;;;;;;;1.80;0.70;;;;;;;9.61;73.90;93845.95;106950;1275;138913;-89
2023/11/05 04:40:43;;;;;;;1.30;0.80;;;;;;;9.61;74.04;93838.94;106931;1273;22725;-89
2023/11/05 04:43:08;;;;;;;2.60;1.00;;;;;;;9.60;74.06;93836.27;106875;1278;137964;-89
2023/11/05 04:45:34;;;;;;;1.90;1.00;;;;;;;9.60;74.10;93832.89;107116;1275;22864;-88
2023/11/05 04:48:01;;;;;;;1.30;0.90;;;;;;;9.60;74.35;93826.67;107027;1275;22929;-89
2023/11/05 04:50:27;;;;;;;1.70;0.70;;;;;;;9.59;74.48;93823.28;106958;1275;138212;-89
2023/11/05 04:52:53;;;;;;;2.00;0.90;;;;;;;9.59;74.32;93814.20;107086;1275;22540;-89
2023/11/05 04:55:19;;;;;;;2.50;0.90;;;;;;;9.57;74.40;93807.69;106943;1275;138359;-89
2023/11/05 04:57:44;;;;;;;3.30;1.00;;;;;;;9.56;74.74;93803.23;106853;1278;22570;-89
2023/11/05 05:00:12;;;;;;;0.70;0.60;;;;;;;9.55;75.05;93794.91;107088;1275;22527;-89
2023/11/05 05:02:39;;;;;;;1.70;0.70;;;;;;;9.54;74.95;93786.40;107077;1275;22685;-89
2023/11/05 05:05:05;;;;;;;2.00;0.80;;;;;;;9.54;75.05;93787.33;107114;1275;24219;-89
2023/11/05 05:07:31;;;;;;;1.00;0.80;;;;;;;9.53;75.45;93785.66;106930;1275;137902;-89
2023/11/05 05:09:56;;;;;;;1.90;0.90;;;;;;;9.53;75.55;93777.41;107074;1278;24384;-90
2023/11/05 05:12:23;;;;;;;1.80;0.90;;;;;;;9.53;75.93;93777.11;106973;1281;138095;-89
2023/11/05 05:14:50;;;;;;;2.90;1.10;;;;;;;9.52;76.26;93771.90;106988;1278;25571;-89
2023/11/05 05:17:17;;;;;;;1.90;1.00;;;;;;;9.52;76.43;93776.30;107136;1278;25281;-90
2023/11/05 05:19:46;;;;;;;1.20;0.80;;;;;;;9.51;76.66;93783.81;106794;1274;138015;-89
2023/11/05 05:22:12;;;;;;;1.30;0.90;;;;;;;9.51;77.33;93790.83;107057;1275;24266;-89
2023/11/05 05:24:38;;;;;;;3.00;1.20;;;;;;;9.51;77.62;93783.73;106893;1278;138154;-90
2023/11/05 05:27:04;;;;;;;3.10;1.00;;;;;;;9.52;77.55;93779.27;106931;1275;22544;-90
2023/11/05 05:29:30;;;;;;;1.50;0.70;;;;;;;9.52;77.89;93771.65;107062;1275;22674;-89
2023/11/05 05:31:57;;;;;;;2.40;0.80;;;;;;;9.53;78.24;93772.48;106908;1275;138786;-89
2023/11/05 05:34:23;;;;;;;1.70;0.80;;;;;;;9.55;78.84;93777.85;106938;1275;25599;-89
2023/11/05 05:36:49;;;;;;;2.60;1.80;;;;;;;9.56;78.87;93765.84;106983;1276;138614;-89
2023/11/05 05:39:15;;;;;;;1.70;0.80;;;;;;;9.57;79.32;93750.88;107105;1278;22597;-90
2023/11/05 05:41:41;;;;;;;1.70;0.80;;;;;;;9.58;79.41;93760.00;107121;1276;23069;-89
2023/11/05 05:44:07;;;;;;;1.60;0.90;;;;;;;9.59;79.34;93755.82;107064;1278;139360;-89
2023/11/05 05:46:33;;;;;;;2.50;1.00;;;;;;;9.60;80.01;93763.94;106880;1281;22535;-89
2023/11/05 05:48:59;;;;;;;9.70;1.50;;;;;;;9.60;80.06;93764.00;106987;1275;137917;-90
2023/11/05 05:51:25;;;;;;;1.20;0.70;;;;;;;9.62;80.14;93754.69;107064;1281;22549;-89
2023/11/05 05:53:51;;;;;;;1.70;0.90;;;;;;;9.65;80.13;93757.36;107092;1275;25354;-89
2023/11/05 05:56:17;;;;;;;2.50;1.40;;;;;;;9.66;80.31;93761.78;107091;1276;138699;-89
2023/11/05 05:58:50;;;;;;;1.00;0.50;;;;;;;9.68;80.52;93761.38;107314;1275;24247;-88
2023/11/05 06:01:17;;;;;;;0.90;0.40;;;;;;;9.69;80.50;93755.33;107671;1278;137965;-89
2023/11/05 06:03:43;;;;;;;1.70;0.80;;;;;;;9.70;80.73;93761.27;107458;1275;25412;-89
2023/11/05 06:06:09;;;;;;;0.80;0.60;;;;;;;9.74;80.89;93757.98;107167;1278;25441;-88
2023/11/05 06:08:35;;;;;;;0.90;0.60;;;;;;;9.77;80.78;93764.94;107006;1281;138173;-89
2023/11/05 06:11:01;;;;;;;1.40;0.70;;;;;;;9.80;81.09;93764.41;107227;1278;24238;-89
2023/11/05 06:13:27;;;;;;;2.00;0.70;;;;;;;9.83;81.21;93755.27;107332;1274;137816;-89
2023/11/05 06:15:53;;;;;;;2.00;0.70;;;;;;;9.86;81.29;93762.35;107235;1275;22589;-87
2023/11/05 06:18:20;;;;;;;1.10;0.60;;;;;;;9.89;81.20;93754.39;106984;1281;138185;-88
2023/11/05 06:20:46;;;;;;;0.60;0.40;;;;;;;9.92;81.37;93752.11;107135;1275;24269;-88
2023/11/05 06:23:12;;;;;;;0.60;0.50;;;;;;;9.96;81.47;93748.27;107324;1259;25622;-88
2023/11/05 06:25:38;;;;;;;1.10;0.60;;;;;;;9.99;81.29;93754.20;107108;1266;137884;-88
2023/11/05 06:28:04;;;;;;;1.20;0.50;;;;;;;10.01;81.47;93751.02;107079;1275;25428;-88
2023/11/05 06:30:30;;;;;;;0.60;0.40;;;;;;;10.05;81.50;93746.59;107061;1281;138786;-88
2023/11/05 06:32:56;;;;;;;0.90;0.50;;;;;;;10.09;81.43;93748.73;107279;1278;24297;-88
2023/11/05 06:35:22;;;;;;;0.90;0.60;;;;;;;10.11;81.82;93750.67;107134;1281;22533;-88
2023/11/05 06:37:48;;;;;;;0.90;0.40;;;;;;;10.13;81.89;93748.77;106858;1281;138128;-87
2023/11/05 06:40:14;;;;;;;1.60;0.50;;;;;;;10.15;81.86;93752.06;107121;1276;25488;-86
2023/11/05 06:42:40;;;;;;;1.40;0.60;;;;;;;10.18;81.95;93742.48;107117;1281;139006;-88
2023/11/05 06:45:07;;;;;;;0.60;0.40;;;;;;;10.21;82.37;93738.17;107088;1275;24907;-89
2023/11/05 06:47:34;;;;;;;0.70;0.40;;;;;;;10.24;82.59;93732.36;106980;1274;22560;-88
2023/11/05 06:49:59;;;;;;;0.60;0.40;;;;;;;10.27;82.59;93739.09;107044;1275;138147;-89
2023/11/05 06:52:26;;;;;;;0.30;0.30;;;;;;;10.28;82.93;93729.60;107261;1259;22611;-88
2023/11/05 06:54:52;;;;;;;0.50;0.40;;;;;;;10.28;83.00;93717.41;107075;1278;138267;-88
2023/11/05 06:57:18;;;;;;;1.40;0.40;;;;;;;10.29;83.16;93715.08;106984;1280;22579;-88
2023/11/05 06:59:44;;;;;;;0.70;0.40;;;;;;;10.29;83.36;93713.73;106963;1276;22644;-89
2023/11/05 07:02:10;;;;;;;0.50;0.30;;;;;;;10.30;83.54;93695.63;107091;1281;138940;-88
2023/11/05 07:04:37;;;;;;;0.90;0.30;;;;;;;10.29;83.97;93698.89;107211;1278;25419;-89
2023/11/05 07:07:04;;;;;;;0.80;0.40;;;;;;;10.28;84.37;93694.77;106928;1276;138327;-89
2023/11/05 07:09:30;;;;;;;0.50;0.30;;;;;;;10.27;84.74;93693.00;107121;1281;25451;-88
2023/11/05 07:11:56;;;;;;;0.70;0.30;;;;;;;10.27;85.12;93694.46;107221;1281;22555;-88
2023/11/05 07:14:22;;;;;;;1.20;0.30;;;;;;;10.26;85.53;93686.72;107236;1278;138506;-88
2023/11/05 07:16:48;;;;;;;0.50;0.30;;;;;;;10.25;85.87;93687.27;107127;1275;22614;-89
2023/11/05 07:19:14;;;;;;;0.20;0.20;;;;;;;10.25;86.36;93693.88;106947;1275;138016;-88
2023/11/05 07:21:40;;;;;;;0.40;0.20;;;;;;;10.22;86.47;93704.50;107069;1274;22565;-89
2023/11/05 07:24:06;;;;;;;0.80;0.40;;;;;;;10.17;86.72;93708.54;107338;1278;25314;-88
2023/11/05 07:26:32;;;;;;;0.30;0.30;;;;;;;10.15;86.96;93720.09;106948;1278;138096;-88
2023/11/05 07:28:59;;;;;;;1.30;0.40;;;;;;;10.12;87.23;93725.46;106965;1278;24574;-88
2023/11/05 07:31:25;;;;;;;0.50;0.30;;;;;;;10.08;87.79;93734.17;107017;1278;138808;-88
2023/11/05 07:33:51;;;;;;;0.60;0.30;;;;;;;10.03;88.15;93733.76;107205;1276;24214;-88
2023/11/05 07:36:17;;;;;;;0.80;0.60;;;;;;;9.98;88.52;93737.80;107000;1281;139684;-89
2023/11/05 07:38:43;;;;;;;0.50;0.40;;;;;;;9.94;88.86;93734.76;107218;1275;22672;-88
2023/11/05 07:41:09;;;;;;;1.00;0.40;;;;;;;9.90;89.16;93735.66;107326;1278;24258;-88
2023/11/05 07:43:35;;;;;;;2.80;0.50;;;;;;;9.86;90.65;93735.48;107165;1276;139449;-89
2023/11/05 07:46:01;;;;;;;0.60;0.30;;;;;;;9.78;91.09;93742.91;107247;1276;22539;-89
2023/11/05 07:48:28;;;;;;;0.50;0.30;;;;;;;9.71;91.10;93741.87;106851;1276;139386;-88
2023/11/05 07:50:54;;;;;;;0.40;0.30;;;;;;;9.62;91.74;93740.58;107097;1281;24612;-89
2023/11/05 07:53:20;;;;;;;0.40;0.30;;;;;;;9.53;91.49;93737.30;107238;1275;22546;-87
2023/11/05 07:55:46;;;;;;;0.70;0.30;;;;;;;9.46;92.45;93738.96;107001;1275;137962;-88
2023/11/05 07:58:14;;;;;;;0.60;0.20;;;;;;;9.36;92.17;93728.98;107071;1281;25304;-89
2023/11/05 08:00:46;;;;;;;0.70;0.30;;;;;;;9.27;92.29;93729.36;106903;1278;138159;-88
2023/11/05 08:03:13;;;;;;;1.10;0.60;;;;;;;9.21;93.36;93732.95;106990;1281;24364;-88
2023/11/05 08:05:40;;;;;;;0.90;0.40;;;;;;;9.15;93.90;93731.59;107116;1275;23276;-88
2023/11/05 08:08:07;;;;;;;0.80;0.50;;;;;;;9.11;94.62;93739.77;106814;1281;137988;-89
2023/11/05 08:10:33;;;;;;;0.50;0.40;;;;;;;9.07;94.68;93746.42;107064;1275;22534;-89
2023/11/05 08:12:59;;;;;;;0.30;0.30;;;;;;;9.03;95.26;93748.91;107231;1278;137726;-89
2023/11/05 08:15:24;;;;;;;0.30;0.20;;;;;;;8.99;95.01;93747.09;107207;1281;27442;-89
2023/11/05 08:17:50;;;;;;;0.80;0.40;;;;;;;8.98;94.99;93745.94;106987;1274;22479;-89
2023/11/05 08:20:18;;;;;;;0.30;0.20;;;;;;;8.96;95.51;93745.19;106957;1280;138200;-90
2023/11/05 08:22:44;;;;;;;0.40;0.30;;;;;;;8.94;95.50;93745.77;106987;1259;25466;-89
2023/11/05 08:25:11;;;;;;;0.40;0.20;;;;;;;8.93;95.23;93743.56;106922;1275;137613;-89
2023/11/05 08:27:41;;;;;;;0.50;0.40;;;;;;;8.91;95.49;93738.11;106953;1275;22579;-89
2023/11/05 08:30:11;;;;;;;0.20;0.20;;;;;;;8.90;95.94;93734.45;107070;1275;22556;-89
2023/11/05 08:32:38;;;;;;;0.70;0.30;;;;;;;8.86;96.16;93730.67;107023;1277;22536;-89
2023/11/05 08:35:05;;;;;;;0.30;0.20;;;;;;;8.83;96.22;93728.88;106948;1281;22595;-89
2023/11/05 08:37:30;;;;;;;0.30;0.30;;;;;;;8.82;95.96;93723.68;106737;1282;137944;-89
2023/11/05 08:39:56;;;;;;;1.30;0.40;;;;;;;8.82;96.44;93722.13;107109;1269;24335;-88
2023/11/05 08:42:22;;;;;;;0.50;0.30;;;;;;;8.82;96.31;93718.04;106835;1260;138414;-89
2023/11/05 08:44:49;;;;;;;0.40;0.20;;;;;;;8.82;96.30;93714.73;107176;1275;22576;-89
2023/11/05 08:47:15;;;;;;;0.90;0.30;;;;;;;8.83;97.00;93710.23;106954;1278;22546;-88
2023/11/05 08:49:41;;;;;;;0.50;0.40;;;;;;;8.83;97.11;93716.34;106929;1275;138298;-88
2023/11/05 08:52:07;;;;;;;0.20;0.20;;;;;;;8.81;97.14;93721.23;107453;1281;23639;-89
2023/11/05 08:54:34;;;;;;;0.80;0.30;;;;;;;8.79;96.68;93719.65;107191;1276;139112;-89
2023/11/05 08:57:00;;;;;;;0.50;0.40;;;;;;;8.78;96.90;93712.10;106966;1283;22599;-89
2023/11/05 08:59:26;;;;;;;0.40;0.30;;;;;;;8.75;96.99;93709.62;107312;1276;24430;-89
2023/11/05 09:01:52;;;;;;;0.40;0.30;;;;;;;8.72;97.13;93710.67;106852;1275;138428;-89
2023/11/05 09:04:18;;;;;;;0.90;0.40;;;;;;;8.71;96.70;93705.89;107005;1282;23300;-89
2023/11/05 09:06:44;;;;;;;1.10;0.60;;;;;;;8.70;97.24;93701.22;106924;1281;138159;-89
2023/11/05 09:09:11;;;;;;;33.40;22.20;;;;;;;8.68;97.47;93701.09;107148;1281;22559;-89
2023/11/05 09:11:37;;;;;;;20.50;15.00;;;;;;;8.66;96.79;93702.82;107088;1275;22747;-89
2023/11/05 09:14:03;;;;;;;15.90;12.70;;;;;;;8.62;96.88;93690.48;106727;1283;138613;-89
2023/11/05 09:16:29;;;;;;;10.20;5.30;;;;;;;8.59;96.31;93697.46;106922;1282;22542;-89
2023/11/05 09:18:55;;;;;;;22.50;7.70;;;;;;;8.58;95.91;93706.20;106823;1281;138114;-89
2023/11/05 09:21:21;;;;;;;3.20;1.40;;;;;;;8.56;95.81;93710.10;106918;1281;22544;-90
2023/11/05 09:23:48;;;;;;;5.50;3.90;;;;;;;8.55;95.88;93691.48;106868;1281;22530;-89
2023/11/05 09:26:14;;;;;;;1.90;0.70;;;;;;;8.53;95.99;93685.61;109902;1278;138022;-88
2023/11/05 09:28:40;;;;;;;4.40;1.80;;;;;;;8.53;96.37;93693.38;109984;1281;22364;-87
2023/11/05 09:31:06;;;;;;;6.60;3.30;;;;;;;8.53;96.21;93693.17;107771;1281;138360;-88
2023/11/05 09:33:32;;;;;;;5.60;2.90;;;;;;;8.55;96.80;93683.73;106950;1281;24251;-87
2023/11/05 09:35:58;;;;;;;2.30;1.20;;;;;;;8.55;96.59;93674.05;106933;1280;25304;-87
2023/11/05 09:38:24;;;;;;;11.40;6.60;;;;;;;8.57;96.92;93673.10;106853;1282;138199;-87
2023/11/05 09:40:50;;;;;;;5.40;2.40;;;;;;;8.57;97.28;93674.29;106960;1281;24197;-89
2023/11/05 09:43:17;;;;;;;5.40;3.10;;;;;;;8.56;97.16;93646.07;106896;1275;139560;-90
2023/11/05 09:45:43;;;;;;;5.10;1.90;;;;;;;8.56;97.20;93636.70;106906;1282;22623;-89
2023/11/05 09:48:11;;;;;;;2.60;1.70;;;;;;;8.56;97.52;93636.19;106926;1281;137973;-89
2023/11/05 09:50:38;;;;;;;3.00;1.50;;;;;;;8.57;97.21;93631.11;106938;1282;23890;-89
2023/11/05 09:53:11;;;;;;;2.30;1.60;;;;;;;8.59;97.16;93621.67;106848;1280;24468;-89
2023/11/05 09:55:41;;;;;;;1.10;0.80;;;;;;;8.60;97.55;93617.80;106840;1281;137796;-89
2023/11/05 09:58:08;;;;;;;1.30;0.60;;;;;;;8.63;97.33;93615.84;107026;1281;22587;-89
2023/11/05 10:00:34;;;;;;;19.30;11.70;;;;;;;8.64;97.00;93626.22;106865;1281;139288;-89
2023/11/05 10:03:03;;;;;;;37.80;18.80;;;;;;;8.63;96.03;93634.23;106999;1281;22772;-89
2023/11/05 10:05:34;;;;;;;20.80;6.80;;;;;;;8.65;96.64;93647.86;106982;1269;22547;-89
2023/11/05 10:08:00;;;;;;;22.90;5.60;;;;;;;8.64;95.95;93652.83;106847;1281;138851;-89
2023/11/05 10:10:27;;;;;;;6.50;2.00;;;;;;;8.65;96.28;93660.24;107010;1281;22552;-89
2023/11/05 10:12:57;;;;;;;4.10;1.20;;;;;;;8.65;95.96;93654.39;106881;1272;138385;-90
2023/11/05 10:15:24;;;;;;;2.20;1.00;;;;;;;8.65;96.16;93648.81;106916;1281;22524;-89
2023/11/05 10:17:56;;;;;;;0.80;0.50;;;;;;;8.65;96.12;93643.27;106935;1281;22673;-89
2023/11/05 10:20:22;;;;;;;;;;;;;;;8.65;96.09;93640.05;106892;1281;137750;-89
2023/11/05 10:23:02;;;;;;;1.90;0.60;;;;;;;8.62;95.36;93641.46;106951;1281;22627;-90
2023/11/05 10:25:28;;;;;;;1.10;0.60;;;;;;;8.60;95.42;93639.39;106425;1271;496829;-89
2023/11/05 10:27:54;;;;;;;0.80;0.60;;;;;;;8.58;95.73;93633.77;107009;1281;22585;-89
2023/11/05 10:30:21;;;;;;;1.30;0.70;;;;;;;8.56;95.99;93625.63;106686;1276;138885;-90
2023/11/05 10:32:48;;;;;;;0.90;0.60;;;;;;;8.55;95.78;93617.73;106981;1281;22584;-89
2023/11/05 10:35:18;;;;;;;2.40;1.10;;;;;;;8.54;94.96;93608.61;110022;1281;22157;-87
2023/11/05 10:37:47;;;;;;;2.40;0.80;;;;;;;8.54;95.20;93597.18;109932;1277;137923;-87
2023/11/05 10:40:17;;;;;;;0.50;0.30;;;;;;;8.52;94.50;93577.12;107155;1281;22538;-88
2023/11/05 10:42:44;;;;;;;2.40;0.70;;;;;;;8.53;93.88;93567.20;106839;1281;138035;-88
2023/11/05 10:45:12;;;;;;;1.40;0.50;;;;;;;8.56;94.29;93550.83;109917;1283;22238;-89
2023/11/05 10:47:38;;;;;;;1.30;0.50;;;;;;;8.61;94.27;93552.17;109927;1281;22222;-89
2023/11/05 10:50:06;;;;;;;10.10;2.90;;;;;;;8.63;94.09;93551.70;109860;1280;138415;-89
2023/11/05 10:52:32;;;;;;;1.70;0.50;;;;;;;8.65;94.06;93542.41;109949;1281;22187;-89
2023/11/05 10:55:08;;;;;;;0.90;0.50;;;;;;;8.65;93.81;93543.83;109844;1278;138091;-89
2023/11/05 10:57:44;;;;;;;1.90;0.90;;;;;;;8.69;93.65;93538.33;109961;1281;22194;-88
2023/11/05 11:00:16;;;;;;;0.90;0.40;;;;;;;8.71;93.35;93549.95;110029;1281;22330;-89
2023/11/05 11:02:42;;;;;;;;;;;;;;;8.76;93.58;93545.38;107088;1281;22522;-88
2023/11/05 11:05:09;;;;;;;0.60;0.30;;;;;;;8.78;93.30;93543.77;106883;1281;22538;-88
2023/11/05 11:07:38;;;;;;;1.20;0.40;;;;;;;8.81;93.42;93548.80;106775;1281;137830;-88
2023/11/05 11:10:07;;;;;;;0.70;0.40;;;;;;;8.84;92.83;93559.13;110022;1281;22308;-89
2023/11/05 11:12:33;;;;;;;0.20;0.20;;;;;;;8.86;93.03;93579.34;109920;1281;138126;-88
2023/11/05 11:15:11;;;;;;;1.30;0.40;;;;;;;8.86;92.84;93602.72;110023;1281;22311;-89
2023/11/05 11:17:41;;;;;;;0.20;0.20;;;;;;;8.86;92.87;93634.66;110007;1273;22170;-88
2023/11/05 11:20:10;;;;;;;1.00;0.50;;;;;;;8.86;92.23;93645.80;109912;1280;138643;-89
2023/11/05 11:22:41;;;;;;;1.30;1.00;;;;;;;8.86;92.07;93648.90;109931;1281;22835;-88
2023/11/05 11:25:07;;;;;;;3.70;2.10;;;;;;;8.86;92.29;93649.21;109928;1281;138307;-88
2023/11/05 11:27:39;;;;;;;1.10;0.50;;;;;;;8.85;92.02;93637.91;110032;1281;22349;-88